Time;durP1;ratioP1;P1;durP2;ratioP2;P2;SDS_P1;SDS_P2;PMS_P1;PMS_P2;Temp;Humidity;BMP_temperature;BMP_pressure;BME280_temperature;BME280_humidity;BME280_pressure;Samples;Min_cycle;Max_cycle;Signal;HPM_P1;HPM_P2
2022/07/23 00:02:25;0.00;0.00;0.62;0.00;0.00;0.62;3.90;3.40;;;27.10;33.60;;;;;;2213837;62;20396;-63
2022/07/23 00:05:11;0.00;0.00;0.62;0.00;0.00;0.62;4.63;3.43;;;27.10;33.60;;;;;;2214457;62;20384;-62
2022/07/23 00:07:56;0.00;0.00;0.62;0.00;0.00;0.62;4.63;4.00;;;27.10;33.60;;;;;;2214111;62;20365;-62
2022/07/23 00:10:41;0.00;0.00;0.62;0.00;0.00;0.62;4.10;3.80;;;27.10;33.60;;;;;;2214025;62;20443;-62
2022/07/23 00:13:26;0.00;0.00;0.62;0.00;0.00;0.62;3.90;3.57;;;27.20;33.60;;;;;;2214492;62;20411;-62
2022/07/23 00:16:10;0.00;0.00;0.62;0.00;0.00;0.62;4.43;3.90;;;27.20;33.70;;;;;;2213919;62;20380;-62
2022/07/23 00:18:57;0.00;0.00;0.62;0.00;0.00;0.62;3.60;3.03;;;27.20;33.60;;;;;;2214589;62;20571;-62
2022/07/23 00:21:41;0.00;0.00;0.62;0.00;0.00;0.62;3.63;3.30;;;27.20;33.60;;;;;;2214370;62;20778;-63
2022/07/23 00:24:26;0.00;0.00;0.62;0.00;0.00;0.62;4.37;3.97;;;27.20;33.50;;;;;;2213838;62;20409;-63
2022/07/23 00:27:11;0.00;0.00;0.62;0.00;0.00;0.62;3.47;3.17;;;27.30;33.60;;;;;;2214553;62;20417;-62
2022/07/23 00:29:55;0.00;0.00;0.62;0.00;0.00;0.62;5.40;4.17;;;27.30;33.60;;;;;;2213817;62;20400;-62
2022/07/23 00:32:48;0.00;0.00;0.62;0.00;0.00;0.62;4.87;4.43;;;27.30;33.50;;;;;;2223957;62;20400;-62
2022/07/23 00:35:40;0.00;0.00;0.62;0.00;0.00;0.62;6.07;4.57;;;27.40;33.50;;;;;;2214446;62;20384;-62
2022/07/23 00:38:25;0.00;0.00;0.62;0.00;0.00;0.62;5.13;4.17;;;27.30;33.30;;;;;;2210850;62;20369;-63
2022/07/23 00:41:10;0.00;0.00;0.62;0.00;0.00;0.62;4.70;3.70;;;27.30;33.30;;;;;;2214312;62;20454;-63
2022/07/23 00:43:54;0.00;0.00;0.62;0.00;0.00;0.62;4.80;3.87;;;27.40;33.40;;;;;;2217709;62;20431;-62
2022/07/23 00:46:53;0.00;0.00;0.62;0.00;0.00;0.62;4.20;3.80;;;27.30;33.40;;;;;;2224491;62;20377;-62
2022/07/23 00:49:38;0.00;0.00;0.62;0.00;0.00;0.62;3.97;3.67;;;27.30;33.40;;;;;;2226643;62;20366;-62
2022/07/23 00:52:24;0.00;0.00;0.62;0.00;0.00;0.62;4.27;3.87;;;27.40;33.40;;;;;;2229989;62;20392;-63
2022/07/23 00:55:11;0.00;0.00;0.62;0.00;0.00;0.62;5.87;3.97;;;27.40;33.40;;;;;;2230148;62;20421;-63
2022/07/23 00:57:56;0.00;0.00;0.62;0.00;0.00;0.62;5.23;4.73;;;27.40;33.40;;;;;;2230614;62;20365;-63
2022/07/23 01:00:43;0.00;0.00;0.62;0.00;0.00;0.62;5.37;4.60;;;27.40;33.20;;;;;;2229758;62;20398;-63
2022/07/23 01:03:28;0.00;0.00;0.62;0.00;0.00;0.62;5.73;4.77;;;27.40;33.10;;;;;;2230159;62;20583;-62
2022/07/23 01:06:14;0.00;0.00;0.62;0.00;0.00;0.62;6.60;4.83;;;27.30;33.10;;;;;;2230422;62;20372;-63
2022/07/23 01:09:00;0.00;0.00;0.62;0.00;0.00;0.62;4.50;3.97;;;27.30;33.10;;;;;;2229716;62;20407;-63
2022/07/23 01:11:45;0.00;0.00;0.62;0.00;0.00;0.62;4.93;4.40;;;27.30;33.10;;;;;;2232781;62;20404;-63
2022/07/23 01:14:30;0.00;0.00;0.62;0.00;0.00;0.62;5.30;4.33;;;27.30;33.20;;;;;;2230186;62;20474;-63
2022/07/23 01:17:15;0.00;0.00;0.62;0.00;0.00;0.62;4.80;4.33;;;27.30;33.20;;;;;;2232537;62;20365;-63
2022/07/23 01:19:59;0.00;0.00;0.62;0.00;0.00;0.62;5.60;4.93;;;27.20;33.10;;;;;;2227599;62;20349;-62
2022/07/23 01:22:47;0.00;0.00;0.62;0.00;0.00;0.62;6.67;4.57;;;27.20;33.10;;;;;;2458814;54;20389;-62
2022/07/23 01:25:32;0.00;0.00;0.62;0.00;0.00;0.62;4.10;3.70;;;27.20;33.10;;;;;;2232843;62;20422;-62
2022/07/23 01:28:20;0.00;0.00;0.62;0.00;0.00;0.62;5.17;3.90;;;27.20;33.90;;;;;;2232680;62;20769;-62
2022/07/23 01:31:05;0.00;0.00;0.62;0.00;0.00;0.62;5.37;4.87;;;27.20;33.20;;;;;;2229526;62;20442;-62
2022/07/23 01:33:53;0.00;0.00;0.62;0.00;0.00;0.62;5.43;4.20;;;27.20;33.20;;;;;;2232927;62;20411;-62
2022/07/23 01:36:39;0.00;0.00;0.62;0.00;0.00;0.62;5.77;4.60;;;27.20;33.20;;;;;;2232438;62;20621;-63
2022/07/23 01:39:25;0.00;0.00;0.62;0.00;0.00;0.62;4.73;4.23;;;27.20;33.20;;;;;;2232430;62;20361;-62
2022/07/23 01:42:11;0.00;0.00;0.62;0.00;0.00;0.62;5.87;4.90;;;27.20;33.10;;;;;;2232723;62;20776;-62
2022/07/23 01:44:55;0.00;0.00;0.62;0.00;0.00;0.62;4.90;4.40;;;27.20;33.10;;;;;;2225938;62;20419;-63
2022/07/23 01:47:41;0.00;0.00;0.62;0.00;0.00;0.62;4.70;4.20;;;27.20;33.00;;;;;;2222331;62;20367;-63
2022/07/23 01:50:26;0.00;0.00;0.62;0.00;0.00;0.62;4.00;3.60;;;27.20;33.10;;;;;;2221806;62;20444;-63
2022/07/23 01:53:46;0.00;0.00;0.62;0.00;0.00;0.62;3.93;3.37;;;27.10;33.10;;;;;;2221427;62;20437;-62
2022/07/23 01:56:33;0.00;0.00;0.62;0.00;0.00;0.62;4.47;4.07;;;27.10;33.10;;;;;;2222223;62;20439;-63
2022/07/23 01:59:17;0.00;0.00;0.62;0.00;0.00;0.62;5.43;4.33;;;27.10;33.10;;;;;;2221745;62;20370;-63
2022/07/23 02:02:06;0.00;0.00;0.62;0.00;0.00;0.62;5.73;4.13;;;27.20;33.20;;;;;;2221990;62;20432;-63
2022/07/23 02:04:51;0.00;0.00;0.62;0.00;0.00;0.62;6.23;4.23;;;27.10;33.10;;;;;;2221875;62;20404;-63
2022/07/23 02:07:37;0.00;0.00;0.62;0.00;0.00;0.62;4.97;4.53;;;27.10;33.00;;;;;;2221530;62;20427;-63
2022/07/23 02:10:22;0.00;0.00;0.62;0.00;0.00;0.62;7.37;5.00;;;27.10;33.70;;;;;;2221929;62;20439;-63
2022/07/23 02:13:08;0.00;0.00;0.62;0.00;0.00;0.62;5.20;4.80;;;27.00;32.80;;;;;;2221956;62;20420;-63
2022/07/23 02:15:53;0.00;0.00;0.62;0.00;0.00;0.62;5.70;4.73;;;27.00;32.70;;;;;;2221535;62;20404;-62
2022/07/23 02:18:38;0.00;0.00;0.62;0.00;0.00;0.62;6.70;4.63;;;27.00;32.80;;;;;;2222015;62;20399;-63
2022/07/23 02:21:23;0.00;0.00;0.62;0.00;0.00;0.62;5.60;4.27;;;26.90;32.80;;;;;;2221530;62;20439;-63
2022/07/23 02:24:08;0.00;0.00;0.62;0.00;0.00;0.62;4.73;4.23;;;26.80;32.80;;;;;;2222168;62;20409;-63
2022/07/23 02:26:53;0.00;0.00;0.62;0.00;0.00;0.62;5.77;4.60;;;26.80;33.00;;;;;;2221816;62;20581;-63
2022/07/23 02:29:39;0.00;0.00;0.62;0.00;0.00;0.62;5.03;4.53;;;26.80;33.00;;;;;;2221872;62;20581;-63
2022/07/23 02:32:24;0.00;0.00;0.62;0.00;0.00;0.62;6.47;4.40;;;26.80;33.10;;;;;;2222017;62;20403;-63
2022/07/23 02:35:09;0.00;0.00;0.62;0.00;0.00;0.62;5.50;4.30;;;26.70;33.00;;;;;;2221834;62;20719;-63
2022/07/23 02:37:55;0.00;0.00;0.62;0.00;0.00;0.62;5.07;4.57;;;26.70;33.00;;;;;;2221486;62;20723;-62
2022/07/23 02:40:40;0.00;0.00;0.62;0.00;0.00;0.62;6.30;4.90;;;26.60;33.00;;;;;;2223010;62;20419;-63
2022/07/23 02:43:25;0.00;0.00;0.62;0.00;0.00;0.62;5.70;4.83;;;26.50;33.00;;;;;;2224949;62;20362;-62
2022/07/23 02:46:11;0.00;0.00;0.62;0.00;0.00;0.62;7.40;4.47;;;26.40;33.00;;;;;;2222179;62;20408;-62
2022/07/23 02:48:56;0.00;0.00;0.62;0.00;0.00;0.62;6.37;4.53;;;26.40;33.20;;;;;;2221942;62;20493;-62
2022/07/23 02:51:42;0.00;0.00;0.62;0.00;0.00;0.62;6.33;5.17;;;26.30;33.30;;;;;;2221073;62;20414;-62
2022/07/23 02:54:26;0.00;0.00;0.62;0.00;0.00;0.62;4.17;3.77;;;26.20;33.20;;;;;;2222058;62;20354;-63
2022/07/23 02:57:12;0.00;0.00;0.62;0.00;0.00;0.62;4.50;4.10;;;26.20;33.30;;;;;;2221824;62;20585;-63
2022/07/23 02:59:57;0.00;0.00;0.62;0.00;0.00;0.62;4.83;4.33;;;26.10;33.40;;;;;;2221316;62;20382;-62
2022/07/23 03:02:43;0.00;0.00;0.62;0.00;0.00;0.62;5.07;3.63;;;26.10;33.60;;;;;;2449988;54;20407;-61
2022/07/23 03:05:28;0.00;0.00;0.62;0.00;0.00;0.62;5.47;3.87;;;26.00;33.70;;;;;;2221662;62;20371;-62
2022/07/23 03:08:13;0.00;0.00;0.62;0.00;0.00;0.62;4.10;3.33;;;26.00;33.80;;;;;;2221728;62;20620;-63
2022/07/23 03:11:00;0.00;0.00;0.62;0.00;0.00;0.62;4.73;3.33;;;26.00;33.90;;;;;;2221681;62;20424;-62
2022/07/23 03:13:45;0.00;0.00;0.62;0.00;0.00;0.62;4.73;3.97;;;26.00;33.90;;;;;;2221261;62;20424;-62
2022/07/23 03:16:31;0.00;0.00;0.62;0.00;0.00;0.62;4.07;3.60;;;26.10;34.00;;;;;;2222428;62;20412;-62
2022/07/23 03:19:17;0.00;0.00;0.62;0.00;0.00;0.62;5.67;3.70;;;26.00;33.90;;;;;;2221693;62;20580;-63
2022/07/23 03:22:02;0.00;0.00;0.62;0.00;0.00;0.62;3.50;3.20;;;26.10;34.00;;;;;;2218256;62;20403;-63
2022/07/23 03:24:54;0.00;0.00;0.62;0.00;0.00;0.62;5.60;3.80;;;26.10;34.00;;;;;;2218051;62;20371;-63
2022/07/23 03:27:42;0.00;0.00;0.62;0.00;0.00;0.62;3.50;3.20;;;26.10;34.10;;;;;;2217845;62;20360;-63
2022/07/23 03:30:28;0.00;0.00;0.62;0.00;0.00;0.62;3.83;3.53;;;26.10;34.10;;;;;;2218287;62;20402;-63
2022/07/23 03:33:13;0.00;0.00;0.62;0.00;0.00;0.62;4.10;3.70;;;26.20;34.10;;;;;;2221945;62;20386;-63
2022/07/23 03:35:59;0.00;0.00;0.62;0.00;0.00;0.62;3.80;3.40;;;26.20;34.10;;;;;;2218473;62;20730;-63
2022/07/23 03:38:46;0.00;0.00;0.62;0.00;0.00;0.62;3.13;2.83;;;26.20;34.10;;;;;;2221954;62;20732;-63
2022/07/23 03:41:32;0.00;0.00;0.62;0.00;0.00;0.62;3.30;2.87;;;26.30;34.10;;;;;;2219451;62;20428;-64
2022/07/23 03:44:17;0.00;0.00;0.62;0.00;0.00;0.62;4.37;2.90;;;26.30;34.10;;;;;;2219137;62;20664;-63
2022/07/23 03:47:02;0.00;0.00;0.62;0.00;0.00;0.62;5.50;3.57;;;26.30;34.00;;;;;;2221889;62;20785;-63
2022/07/23 03:49:48;0.00;0.00;0.62;0.00;0.00;0.62;5.60;3.90;;;26.40;34.10;;;;;;2221964;62;20773;-63
2022/07/23 03:52:34;0.00;0.00;0.62;0.00;0.00;0.62;6.43;4.40;;;26.40;34.00;;;;;;2444662;54;20391;-63
2022/07/23 03:55:18;0.00;0.00;0.62;0.00;0.00;0.62;4.10;3.67;;;26.30;33.90;;;;;;2217936;62;20406;-63
2022/07/23 03:58:04;0.00;0.00;0.62;0.00;0.00;0.62;5.50;4.43;;;26.30;33.90;;;;;;2217372;62;20392;-62
2022/07/23 04:00:49;0.00;0.00;0.62;0.00;0.00;0.62;5.77;5.17;;;26.30;33.90;;;;;;2220423;62;20401;-63
2022/07/23 04:03:34;0.00;0.00;0.62;0.00;0.00;0.62;5.60;5.10;;;26.20;33.90;;;;;;2225505;62;20447;-63
2022/07/23 04:06:19;0.00;0.00;0.62;0.00;0.00;0.62;5.70;4.40;;;26.10;34.00;;;;;;2225511;62;20601;-63
2022/07/23 04:09:06;0.00;0.00;0.62;0.00;0.00;0.62;3.80;3.50;;;26.00;34.10;;;;;;2225618;62;20718;-63
2022/07/23 04:11:51;0.00;0.00;0.62;0.00;0.00;0.62;4.63;4.20;;;26.00;34.30;;;;;;2225272;62;20398;-63
2022/07/23 04:14:38;0.00;0.00;0.62;0.00;0.00;0.62;3.53;3.23;;;26.00;34.40;;;;;;2225262;62;20373;-63
2022/07/23 04:17:22;0.00;0.00;0.62;0.00;0.00;0.62;3.87;3.47;;;26.00;34.40;;;;;;2226049;62;20361;-63
2022/07/23 04:20:09;0.00;0.00;0.62;0.00;0.00;0.62;3.97;3.30;;;26.00;34.60;;;;;;2225132;62;20370;-63
2022/07/23 04:23:01;0.00;0.00;0.62;0.00;0.00;0.62;5.87;3.90;;;26.00;34.60;;;;;;2229121;62;20738;-62
2022/07/23 04:25:47;0.00;0.00;0.62;0.00;0.00;0.62;4.20;3.47;;;26.00;34.60;;;;;;2226103;62;20640;-63
2022/07/23 04:28:32;0.00;0.00;0.62;0.00;0.00;0.62;4.80;4.17;;;26.00;34.70;;;;;;2228317;62;20370;-62
2022/07/23 04:31:18;0.00;0.00;0.62;0.00;0.00;0.62;7.30;4.53;;;26.00;34.60;;;;;;2226186;62;20409;-62
2022/07/23 04:34:03;0.00;0.00;0.62;0.00;0.00;0.62;6.27;3.97;;;26.00;34.60;;;;;;2226049;62;20389;-62
2022/07/23 04:36:49;0.00;0.00;0.62;0.00;0.00;0.62;4.10;3.70;;;26.00;34.60;;;;;;2225998;62;20464;-63
2022/07/23 04:39:34;0.00;0.00;0.62;0.00;0.00;0.62;4.63;3.20;;;26.00;34.60;;;;;;2226791;62;20366;-63
2022/07/23 04:42:20;0.00;0.00;0.62;0.00;0.00;0.62;6.00;3.90;;;26.00;34.70;;;;;;2225648;62;20398;-63
2022/07/23 04:45:06;0.00;0.00;0.62;0.00;0.00;0.62;4.90;3.70;;;26.00;34.70;;;;;;2226327;62;20414;-63
2022/07/23 04:47:52;0.00;0.00;0.62;0.00;0.00;0.62;3.63;3.33;;;26.00;34.70;;;;;;2226522;62;20451;-63
2022/07/23 04:50:36;0.00;0.00;0.62;0.00;0.00;0.62;3.13;2.83;;;26.00;34.60;;;;;;2224409;62;20395;-63
2022/07/23 04:53:23;0.00;0.00;0.62;0.00;0.00;0.62;3.67;2.90;;;26.00;34.60;;;;;;2222837;62;20414;-63
2022/07/23 04:56:10;0.00;0.00;0.62;0.00;0.00;0.62;4.27;2.97;;;26.10;34.60;;;;;;2222126;62;20363;-63
2022/07/23 04:58:56;0.00;0.00;0.62;0.00;0.00;0.62;4.80;2.90;;;26.10;34.60;;;;;;2221851;62;20370;-63
2022/07/23 05:01:41;0.00;0.00;0.62;0.00;0.00;0.62;4.40;3.33;;;26.10;34.60;;;;;;2225509;62;20397;-63
2022/07/23 05:04:26;0.00;0.00;0.62;0.00;0.00;0.62;4.87;3.90;;;26.20;34.60;;;;;;2225678;62;20370;-63
2022/07/23 05:07:12;0.00;0.00;0.62;0.00;0.00;0.62;3.67;3.37;;;26.20;34.60;;;;;;2226448;62;20443;-62
2022/07/23 05:09:57;0.00;0.00;0.62;0.00;0.00;0.62;3.50;3.20;;;26.20;34.60;;;;;;2225974;62;20729;-63
2022/07/23 05:12:41;0.00;0.00;0.62;0.00;0.00;0.62;4.37;3.60;;;26.20;34.50;;;;;;2453853;54;20457;-62
2022/07/23 05:15:28;0.00;0.00;0.62;0.00;0.00;0.62;4.00;3.60;;;26.20;34.50;;;;;;2226240;62;20371;-63
2022/07/23 05:18:14;0.00;0.00;0.62;0.00;0.00;0.62;3.97;3.47;;;26.30;34.60;;;;;;2226016;62;20366;-63
2022/07/23 05:20:59;0.00;0.00;0.62;0.00;0.00;0.62;3.70;3.40;;;26.20;34.50;;;;;;2225424;62;20362;-63
2022/07/23 05:23:44;0.00;0.00;0.62;0.00;0.00;0.62;4.90;3.00;;;26.30;34.50;;;;;;2226196;62;20361;-63
2022/07/23 05:26:29;0.00;0.00;0.62;0.00;0.00;0.62;4.40;3.90;;;26.30;34.50;;;;;;2225784;62;20584;-62
2022/07/23 05:29:14;0.00;0.00;0.62;0.00;0.00;0.62;3.67;3.27;;;26.30;34.50;;;;;;2226463;62;20484;-63
2022/07/23 05:32:00;0.00;0.00;0.62;0.00;0.00;0.62;7.10;4.07;;;26.40;34.50;;;;;;2222375;62;20442;-62
2022/07/23 05:34:47;0.00;0.00;0.62;0.00;0.00;0.62;3.90;3.60;;;26.40;34.50;;;;;;2221565;62;20359;-62
2022/07/23 05:37:32;0.00;0.00;0.62;0.00;0.00;0.62;4.20;3.80;;;26.40;34.50;;;;;;2222817;62;20576;-62
2022/07/23 05:40:16;0.00;0.00;0.62;0.00;0.00;0.62;4.53;4.13;;;26.30;34.40;;;;;;2222307;62;20402;-62
2022/07/23 05:43:01;0.00;0.00;0.62;0.00;0.00;0.62;4.10;3.40;;;26.30;34.40;;;;;;2225566;62;20462;-62
2022/07/23 05:45:46;0.00;0.00;0.62;0.00;0.00;0.62;4.03;3.27;;;26.30;34.40;;;;;;2226221;62;20382;-62
2022/07/23 05:48:33;0.00;0.00;0.62;0.00;0.00;0.62;5.97;3.93;;;26.30;34.50;;;;;;2225661;62;20620;-62
2022/07/23 05:51:26;0.00;0.00;0.62;0.00;0.00;0.62;4.90;3.67;;;26.40;34.50;;;;;;2223405;62;20479;-63
2022/07/23 05:54:11;0.00;0.00;0.62;0.00;0.00;0.62;3.43;3.13;;;26.30;34.50;;;;;;2222025;62;20408;-63
2022/07/23 05:56:57;0.00;0.00;0.62;0.00;0.00;0.62;3.50;3.20;;;26.40;34.50;;;;;;2224246;62;20394;-63
2022/07/23 05:59:42;0.00;0.00;0.62;0.00;0.00;0.62;6.23;4.47;;;26.40;34.60;;;;;;2224877;62;20417;-62
2022/07/23 06:02:26;0.00;0.00;0.62;0.00;0.00;0.62;5.57;4.80;;;26.40;34.50;;;;;;2225773;62;20389;-62
2022/07/23 06:05:13;0.00;0.00;0.62;0.00;0.00;0.62;4.93;4.40;;;26.40;34.40;;;;;;2225440;62;20371;-63
2022/07/23 06:07:58;0.00;0.00;0.62;0.00;0.00;0.62;3.50;3.00;;;26.30;34.30;;;;;;2226085;62;20637;-62
2022/07/23 06:10:44;0.00;0.00;0.62;0.00;0.00;0.62;4.10;3.53;;;26.30;34.40;;;;;;2225448;62;20618;-63
2022/07/23 06:13:29;0.00;0.00;0.62;0.00;0.00;0.62;5.50;3.50;;;26.30;34.40;;;;;;2226170;62;20366;-63
2022/07/23 06:16:14;0.00;0.00;0.62;0.00;0.00;0.62;3.80;3.47;;;26.30;34.50;;;;;;2225834;62;20373;-63
2022/07/23 06:18:58;0.00;0.00;0.62;0.00;0.00;0.62;3.20;2.93;;;26.30;34.50;;;;;;2225344;62;20396;-63
2022/07/23 06:21:47;0.00;0.00;0.62;0.00;0.00;0.62;5.33;3.67;;;26.30;34.50;;;;;;2222885;62;20394;-63
2022/07/23 06:24:32;0.00;0.00;0.62;0.00;0.00;0.62;3.70;3.40;;;26.40;34.60;;;;;;2224625;62;20371;-63
2022/07/23 06:27:17;0.00;0.00;0.62;0.00;0.00;0.62;4.87;3.40;;;26.40;34.60;;;;;;2221872;62;20657;-63
2022/07/23 06:30:02;0.00;0.00;0.62;0.00;0.00;0.62;4.13;2.97;;;26.40;34.60;;;;;;2222090;62;20755;-63
2022/07/23 06:32:47;0.00;0.00;0.62;0.00;0.00;0.62;3.13;2.80;;;26.40;34.60;;;;;;2449313;54;20395;-69
2022/07/23 06:35:33;0.00;0.00;0.62;0.00;0.00;0.62;3.43;3.13;;;26.50;34.70;;;;;;2221745;62;20416;-70
2022/07/23 06:38:19;0.00;0.00;0.62;0.00;0.00;0.62;5.53;2.60;;;26.50;34.70;;;;;;2225945;62;20419;-72
2022/07/23 06:41:04;0.00;0.00;0.62;0.00;0.00;0.62;3.70;2.80;;;26.50;34.70;;;;;;2226053;62;20383;-73
2022/07/23 06:43:49;0.00;0.00;0.62;0.00;0.00;0.62;3.53;2.97;;;26.50;35.40;;;;;;2222034;62;20390;-66
2022/07/23 06:46:35;0.00;0.00;0.62;0.00;0.00;0.62;3.67;3.10;;;26.50;34.70;;;;;;2221784;62;20370;-68
2022/07/23 06:49:20;0.00;0.00;0.62;0.00;0.00;0.62;3.20;2.90;;;26.60;34.70;;;;;;2221237;62;20433;-69
2022/07/23 06:52:05;0.00;0.00;0.62;0.00;0.00;0.62;3.67;3.27;;;26.60;34.60;;;;;;2221938;62;20456;-67
2022/07/23 06:54:53;0.00;0.00;0.62;0.00;0.00;0.62;3.37;3.07;;;26.70;34.70;;;;;;2221765;62;20375;-67
2022/07/23 06:57:38;0.00;0.00;0.62;0.00;0.00;0.62;4.27;3.60;;;26.70;34.60;;;;;;2221678;62;20379;-70
2022/07/23 07:00:26;0.00;0.00;0.62;0.00;0.00;0.62;3.30;3.00;;;26.70;34.50;;;;;;2222491;62;20726;-65
2022/07/23 07:03:10;0.00;0.00;0.62;0.00;0.00;0.62;3.40;2.77;;;26.70;34.50;;;;;;2225163;62;20399;-70
2022/07/23 07:05:57;0.00;0.00;0.62;0.00;0.00;0.62;4.17;3.40;;;26.70;34.40;;;;;;2226476;62;20385;-67
2022/07/23 07:08:43;0.00;0.00;0.62;0.00;0.00;0.62;3.93;3.40;;;26.80;34.50;;;;;;2225945;62;20370;-67
2022/07/23 07:11:29;0.00;0.00;0.62;0.00;0.00;0.62;5.00;3.50;;;26.80;34.50;;;;;;2223005;62;20452;-68
2022/07/23 07:14:14;0.00;0.00;0.62;0.00;0.00;0.62;5.70;3.50;;;26.80;34.50;;;;;;2222455;62;20501;-70
2022/07/23 07:16:59;0.00;0.00;0.62;0.00;0.00;0.62;4.10;3.57;;;26.80;34.40;;;;;;2222134;62;20581;-68
2022/07/23 07:19:43;0.00;0.00;0.62;0.00;0.00;0.62;4.77;3.73;;;26.80;34.20;;;;;;2222086;62;20590;-68
2022/07/23 07:22:28;0.00;0.00;0.62;0.00;0.00;0.62;4.47;3.20;;;26.80;34.10;;;;;;2222343;62;20407;-70
2022/07/23 07:25:13;0.00;0.00;0.62;0.00;0.00;0.62;3.57;3.20;;;26.80;34.00;;;;;;2221634;62;20371;-71
2022/07/23 07:27:59;0.00;0.00;0.62;0.00;0.00;0.62;3.30;2.73;;;26.80;34.00;;;;;;2222458;62;20575;-66
2022/07/23 07:30:44;0.00;0.00;0.62;0.00;0.00;0.62;6.30;3.23;;;26.80;33.80;;;;;;2221906;62;20713;-71
2022/07/23 07:33:28;0.00;0.00;0.62;0.00;0.00;0.62;3.47;2.80;;;26.80;33.70;;;;;;2221637;62;20359;-69
2022/07/23 07:36:13;0.00;0.00;0.62;0.00;0.00;0.62;4.00;3.07;;;26.80;33.50;;;;;;2222255;62;20604;-69
2022/07/23 07:38:58;0.00;0.00;0.62;0.00;0.00;0.62;6.20;3.83;;;26.80;33.40;;;;;;2222092;62;20635;-68
2022/07/23 07:41:42;0.00;0.00;0.62;0.00;0.00;0.62;4.43;2.50;;;26.80;33.20;;;;;;2224332;62;20439;-64
2022/07/23 07:44:28;0.00;0.00;0.62;0.00;0.00;0.62;3.33;2.90;;;26.70;33.00;;;;;;2226092;62;20742;-65
2022/07/23 07:47:15;0.00;0.00;0.62;0.00;0.00;0.62;3.83;2.93;;;26.70;33.10;;;;;;2228011;62;20373;-68
2022/07/23 07:50:00;0.00;0.00;0.62;0.00;0.00;0.62;3.23;2.93;;;26.70;33.20;;;;;;2228287;62;20369;-68
2022/07/23 07:52:45;0.00;0.00;0.62;0.00;0.00;0.62;2.60;2.40;;;26.70;33.30;;;;;;2614893;46;20421;-69
2022/07/23 07:55:31;0.00;0.00;0.62;0.00;0.00;0.62;2.40;2.10;;;26.70;33.20;;;;;;2225587;62;20385;-65
2022/07/23 07:58:15;0.00;0.00;0.62;0.00;0.00;0.62;3.20;2.17;;;26.70;33.20;;;;;;2226106;62;20722;-64
2022/07/23 08:01:02;0.00;0.00;0.62;0.00;0.00;0.62;3.20;1.83;;;26.70;33.20;;;;;;2225827;62;20377;-68
2022/07/23 08:03:47;0.00;0.00;0.62;0.00;0.00;0.62;4.53;2.10;;;26.70;33.20;;;;;;2225457;62;20378;-69
2022/07/23 08:06:32;0.00;0.00;0.62;0.00;0.00;0.62;2.70;2.20;;;26.70;33.20;;;;;;2226066;62;20401;-65
2022/07/23 08:09:16;0.00;0.00;0.62;0.00;0.00;0.62;3.33;1.97;;;26.70;33.20;;;;;;2225626;62;20574;-67
2022/07/23 08:12:01;0.00;0.00;0.62;0.00;0.00;0.62;1.97;1.77;;;26.70;33.20;;;;;;2225829;62;20413;-68
2022/07/23 08:14:45;0.00;0.00;0.62;0.00;0.00;0.62;3.20;2.10;;;26.80;33.20;;;;;;2225843;62;20373;-67
2022/07/23 08:17:32;0.00;0.00;0.62;0.00;0.00;0.62;3.13;1.90;;;26.80;33.10;;;;;;2225430;62;20718;-67
2022/07/23 08:20:19;0.00;0.00;0.62;0.00;0.00;0.62;3.50;1.73;;;26.80;33.10;;;;;;2225609;62;20646;-65
2022/07/23 08:23:06;0.00;0.00;0.62;0.00;0.00;0.62;3.20;1.70;;;26.80;33.00;;;;;;2222065;62;20412;-67
2022/07/23 08:25:51;0.00;0.00;0.62;0.00;0.00;0.62;2.60;1.63;;;26.80;33.00;;;;;;2221551;62;20597;-66
2022/07/23 08:28:36;0.00;0.00;0.62;0.00;0.00;0.62;2.50;1.77;;;26.80;33.00;;;;;;2222196;62;20408;-67
2022/07/23 08:31:21;0.00;0.00;0.62;0.00;0.00;0.62;2.30;2.00;;;26.80;33.00;;;;;;2221482;62;20487;-67
2022/07/23 08:34:07;0.00;0.00;0.62;0.00;0.00;0.62;2.27;1.77;;;26.90;33.00;;;;;;2221998;62;20363;-68
2022/07/23 08:36:51;0.00;0.00;0.62;0.00;0.00;0.62;1.60;1.40;;;26.90;33.00;;;;;;2221932;62;20374;-66
2022/07/23 08:39:36;0.00;0.00;0.62;0.00;0.00;0.62;3.47;2.20;;;26.90;33.60;;;;;;2221434;62;20719;-65
2022/07/23 08:42:21;0.00;0.00;0.62;0.00;0.00;0.62;3.20;2.00;;;26.90;32.80;;;;;;2225753;62;20463;-67
2022/07/23 08:45:09;0.00;0.00;0.62;0.00;0.00;0.62;6.03;2.10;;;26.90;32.70;;;;;;2225711;62;20405;-67
2022/07/23 08:47:56;0.00;0.00;0.62;0.00;0.00;0.62;2.43;2.20;;;27.00;32.60;;;;;;2225355;62;20366;-68
2022/07/23 08:50:46;0.00;0.00;0.62;0.00;0.00;0.62;3.10;2.07;;;27.00;32.20;;;;;;2225945;62;20470;-67
2022/07/23 08:53:35;0.00;0.00;0.62;0.00;0.00;0.62;3.57;2.23;;;26.90;31.90;;;;;;2225494;62;20451;-67
2022/07/23 08:56:20;0.00;0.00;0.62;0.00;0.00;0.62;3.43;2.17;;;26.90;31.80;;;;;;2225580;62;20394;-65
2022/07/23 08:59:04;0.00;0.00;0.62;0.00;0.00;0.62;2.63;2.17;;;26.90;31.70;;;;;;2225833;62;20365;-67
2022/07/23 09:01:49;0.00;0.00;0.62;0.00;0.00;0.62;3.53;2.10;;;26.90;31.30;;;;;;2225081;62;20385;-68
2022/07/23 09:04:34;0.00;0.00;0.62;0.00;0.00;0.62;2.30;2.10;;;26.90;31.30;;;;;;2225957;62;20369;-65
2022/07/23 09:07:20;0.00;0.00;0.62;0.00;0.00;0.62;2.03;1.80;;;26.90;31.30;;;;;;2225754;62;20370;-69
2022/07/23 09:10:09;0.00;0.00;0.62;0.00;0.00;0.62;2.73;1.57;;;26.90;30.70;;;;;;2225774;62;20451;-69
2022/07/23 09:12:54;0.00;0.00;0.62;0.00;0.00;0.62;2.90;1.60;;;26.90;30.80;;;;;;2267334;59;20418;-66
2022/07/23 09:15:49;0.00;0.00;0.62;0.00;0.00;0.62;2.40;1.90;;;26.80;31.00;;;;;;2224409;62;20371;-68
2022/07/23 09:18:43;0.00;0.00;0.62;0.00;0.00;0.62;2.47;1.90;;;26.80;31.20;;;;;;2222419;62;20378;-66
2022/07/23 09:21:30;0.00;0.00;0.62;0.00;0.00;0.62;3.00;1.87;;;26.80;31.30;;;;;;2224646;62;20386;-66
2022/07/23 09:24:17;0.00;0.00;0.62;0.00;0.00;0.62;2.20;2.00;;;26.80;31.20;;;;;;2225472;62;20365;-67
2022/07/23 09:27:02;0.00;0.00;0.62;0.00;0.00;0.62;3.87;2.13;;;26.80;31.10;;;;;;2226670;62;20701;-65
2022/07/23 09:29:56;0.00;0.00;0.62;0.00;0.00;0.62;2.83;2.07;;;26.80;31.20;;;;;;2226280;62;20374;-68
2022/07/23 09:32:42;0.00;0.00;0.62;0.00;0.00;0.62;2.30;2.00;;;26.80;31.10;;;;;;2624142;46;20411;-66
2022/07/23 09:35:44;0.00;0.00;0.62;0.00;0.00;0.62;2.90;1.70;;;26.70;31.20;;;;;;2226191;62;20366;-68
2022/07/23 09:38:29;0.00;0.00;0.62;0.00;0.00;0.62;2.77;1.90;;;26.70;30.70;;;;;;2225332;62;20450;-68
2022/07/23 09:41:16;0.00;0.00;0.62;0.00;0.00;0.62;3.90;2.20;;;26.70;30.90;;;;;;2224447;62;20399;-68
2022/07/23 09:44:09;0.00;0.00;0.62;0.00;0.00;0.62;2.17;1.60;;;26.70;31.20;;;;;;2222317;62;20387;-67
2022/07/23 09:47:00;0.00;0.00;0.62;0.00;0.00;0.62;2.10;1.70;;;26.60;31.10;;;;;;2221921;62;20474;-69
2022/07/23 09:50:00;0.00;0.00;0.62;0.00;0.00;0.62;2.73;1.67;;;26.70;31.20;;;;;;2222803;62;20370;-68
2022/07/23 09:52:48;0.00;0.00;0.62;0.00;0.00;0.62;2.10;1.70;;;26.70;31.20;;;;;;2466078;54;20387;-66
2022/07/23 09:55:38;0.00;0.00;0.62;0.00;0.00;0.62;2.37;1.80;;;26.70;31.20;;;;;;2222245;62;20390;-66
2022/07/23 09:58:29;0.00;0.00;0.62;0.00;0.00;0.62;1.80;1.70;;;26.70;31.20;;;;;;2222428;62;20497;-67
2022/07/23 10:01:14;0.00;0.00;0.62;0.00;0.00;0.62;2.67;1.80;;;26.70;31.20;;;;;;2223623;62;20406;-65
2022/07/23 10:04:00;0.00;0.00;0.62;0.00;0.00;0.62;3.20;2.10;;;26.70;31.20;;;;;;2226581;62;20366;-65
2022/07/23 10:07:08;0.00;0.00;0.62;0.00;0.00;0.62;2.30;1.80;;;26.70;31.20;;;;;;2226328;62;20373;-68
2022/07/23 10:10:13;0.00;0.00;0.62;0.00;0.00;0.62;2.70;2.37;;;26.70;31.80;;;;;;2226018;62;20369;-66
2022/07/23 10:14:04;0.00;0.00;0.62;0.00;0.00;0.62;3.30;1.90;;;26.70;30.80;;;;;;2226233;62;20374;-67
2022/07/23 10:16:30;0.00;0.00;0.62;0.00;0.00;0.62;3.47;1.83;;;26.70;30.60;;;;;;2225200;62;20419;-67
2022/07/23 10:19:16;0.00;0.00;0.62;0.00;0.00;0.62;3.13;2.03;;;26.70;30.40;;;;;;2226440;62;20374;-66
2022/07/23 10:22:04;0.00;0.00;0.62;0.00;0.00;0.62;3.30;2.00;;;26.70;30.30;;;;;;2225997;62;20427;-65
2022/07/23 10:25:13;0.00;0.00;0.62;0.00;0.00;0.62;3.10;1.73;;;26.70;30.40;;;;;;2226075;62;20378;-66
2022/07/23 10:28:15;0.00;0.00;0.62;0.00;0.00;0.62;2.30;2.00;;;26.70;30.40;;;;;;2226279;62;20369;-65
2022/07/23 10:31:09;0.00;0.00;0.62;0.00;0.00;0.62;3.90;2.37;;;26.70;30.40;;;;;;2225472;62;20443;-66
2022/07/23 10:34:08;0.00;0.00;0.62;0.00;0.00;0.62;5.17;1.80;;;26.70;30.30;;;;;;2226451;62;20592;-66
2022/07/23 10:37:00;0.00;0.00;0.62;0.00;0.00;0.62;2.87;2.43;;;26.70;30.10;;;;;;2226066;62;20385;-66
2022/07/23 10:39:45;0.00;0.00;0.62;0.00;0.00;0.62;3.00;2.30;;;26.70;30.00;;;;;;2226066;62;20418;-67
2022/07/23 10:42:35;0.00;0.00;0.62;0.00;0.00;0.62;2.33;1.93;;;26.80;30.00;;;;;;2491985;54;20423;-65
2022/07/23 10:45:26;0.00;0.00;0.62;0.00;0.00;0.62;2.23;1.80;;;26.80;29.90;;;;;;2225663;62;20403;-66
2022/07/23 10:48:17;0.00;0.00;0.62;0.00;0.00;0.62;2.53;1.97;;;26.80;30.00;;;;;;2226510;62;20734;-65
2022/07/23 10:51:13;0.00;0.00;0.62;0.00;0.00;0.62;2.30;1.70;;;26.80;30.00;;;;;;2225828;62;20746;-66
2022/07/23 10:53:58;0.00;0.00;0.62;0.00;0.00;0.62;2.27;1.90;;;26.80;30.10;;;;;;2225655;62;20367;-66
2022/07/23 10:57:07;0.00;0.00;0.62;0.00;0.00;0.62;5.30;2.50;;;26.80;30.20;;;;;;2226414;62;20722;-66
2022/07/23 11:00:20;0.00;0.00;0.62;0.00;0.00;0.62;3.03;1.93;;;26.80;30.10;;;;;;2225712;62;20666;-68